logo
Rechercher aéroport 
image banner adimage banner adimage banner ad
image banner ad

KNZY - North Island Nas /Halsey Field/

Situé à San Diego, United States

ICAO - NZY, IATA - NZY

Données fournies par Airmate  

Information générale

Coordonnées: N32°41'54" W117°12'47"
Élévation : 25 feet MSL.
Variation magnétique : 11° East
Voir autres Aéroports à California

Données opérationnelles

Special qualification required
Heure actuelle UTC:
Heure actuelle locale:
Météo
METAR: KNZY 281152Z 00000KT 1/4SM FG VV002 20/20 A2988 RMK AO2 SLP117 T02000200 10217 20178 55001
TAF: TAF AMD KNZY 2809/2907 VRB06KT 3200 BR SCT005 QNH2984INS TEMPO 2809/2815 0400 FG BKN002 FM281600 VRB06KT 9999 SCT006 BKN008 QNH2987INS BECMG 2817/2819 SCT008 TEMPO 2903/2907 BKN008 T21/2813Z T28/2823Z AMD 0940 FS30200
Voir NOTAMs / SUP AIP / TFR affectant cet aéroport [VIEW]
Fréquences de communication: [VIEW]

Pistes:

Identifiant RWYQFULongueur (ft)Largeur (ft)SurfaceLDA (ft)
11121°7500200OTHER
29301°7500200OTHER
18195°8000200OTHER
3615°8000200OTHER

Coordonnées de l'aéroport

Adresse: San Diego United States

Vue satellite de KNZY